sensor_id;sensor_type;location;lat;lon;timestamp;temperature;humidity
18781;DHT22;9519;51.890;8.970;2022-09-27T00:03:38;11.40;99.90
18781;DHT22;9519;51.890;8.970;2022-09-27T00:08:40;11.40;99.90
18781;DHT22;9519;51.890;8.970;2022-09-27T00:13:45;11.40;99.90
18781;DHT22;9519;51.890;8.970;2022-09-27T00:18:47;11.40;99.90
18781;DHT22;9519;51.890;8.970;2022-09-27T00:23:49;11.40;99.90
18781;DHT22;9519;51.890;8.970;2022-09-27T00:28:53;11.40;99.90
18781;DHT22;9519;51.890;8.970;2022-09-27T00:33:56;11.40;99.90
18781;DHT22;9519;51.890;8.970;2022-09-27T00:39:00;11.40;99.90
18781;DHT22;9519;51.890;8.970;2022-09-27T00:49:48;11.30;99.90
18781;DHT22;9519;51.890;8.970;2022-09-27T00:54:56;11.30;99.90
18781;DHT22;9519;51.890;8.970;2022-09-27T01:00:05;11.30;99.90
18781;DHT22;9519;51.890;8.970;2022-09-27T01:05:12;11.30;99.90
18781;DHT22;9519;51.890;8.970;2022-09-27T01:10:17;11.30;99.90
18781;DHT22;9519;51.890;8.970;2022-09-27T01:15:28;11.30;99.90
18781;DHT22;9519;51.890;8.970;2022-09-27T01:21:11;11.30;99.90
18781;DHT22;9519;51.890;8.970;2022-09-27T01:26:46;11.30;99.90
18781;DHT22;9519;51.890;8.970;2022-09-27T01:32:13;11.30;99.90
18781;DHT22;9519;51.890;8.970;2022-09-27T01:37:23;11.30;99.90
18781;DHT22;9519;51.890;8.970;2022-09-27T01:42:38;11.30;99.90
18781;DHT22;9519;51.890;8.970;2022-09-27T01:47:50;11.30;99.90
18781;DHT22;9519;51.890;8.970;2022-09-27T01:52:59;11.40;99.90
18781;DHT22;9519;51.890;8.970;2022-09-27T01:58:11;11.30;99.90
18781;DHT22;9519;51.890;8.970;2022-09-27T02:03:19;11.30;99.90
18781;DHT22;9519;51.890;8.970;2022-09-27T02:08:31;11.30;99.90
18781;DHT22;9519;51.890;8.970;2022-09-27T02:13:41;11.30;99.90
18781;DHT22;9519;51.890;8.970;2022-09-27T02:18:54;11.30;99.90
18781;DHT22;9519;51.890;8.970;2022-09-27T02:24:11;11.30;99.90
18781;DHT22;9519;51.890;8.970;2022-09-27T02:29:22;11.20;99.90
18781;DHT22;9519;51.890;8.970;2022-09-27T02:34:31;11.20;99.90
18781;DHT22;9519;51.890;8.970;2022-09-27T02:39:37;11.20;99.90
18781;DHT22;9519;51.890;8.970;2022-09-27T02:44:39;11.20;99.90
18781;DHT22;9519;51.890;8.970;2022-09-27T02:50:02;11.20;99.90
18781;DHT22;9519;51.890;8.970;2022-09-27T02:55:29;11.20;99.90
18781;DHT22;9519;51.890;8.970;2022-09-27T03:00:47;11.10;99.90
18781;DHT22;9519;51.890;8.970;2022-09-27T03:06:03;11.00;99.90
18781;DHT22;9519;51.890;8.970;2022-09-27T03:11:07;11.00;99.90
18781;DHT22;9519;51.890;8.970;2022-09-27T03:16:09;10.90;99.90
18781;DHT22;9519;51.890;8.970;2022-09-27T03:21:14;10.80;99.90
18781;DHT22;9519;51.890;8.970;2022-09-27T03:26:16;10.80;99.90
18781;DHT22;9519;51.890;8.970;2022-09-27T03:31:18;10.80;99.90
18781;DHT22;9519;51.890;8.970;2022-09-27T03:36:22;10.70;99.90
18781;DHT22;9519;51.890;8.970;2022-09-27T03:41:24;10.70;99.90
18781;DHT22;9519;51.890;8.970;2022-09-27T03:46:27;10.70;99.90
18781;DHT22;9519;51.890;8.970;2022-09-27T03:51:30;10.70;99.90
18781;DHT22;9519;51.890;8.970;2022-09-27T03:56:32;10.70;99.90
18781;DHT22;9519;51.890;8.970;2022-09-27T04:01:35;10.70;99.90
18781;DHT22;9519;51.890;8.970;2022-09-27T04:06:39;10.70;99.90
18781;DHT22;9519;51.890;8.970;2022-09-27T04:11:42;10.70;99.90
18781;DHT22;9519;51.890;8.970;2022-09-27T04:16:44;10.70;99.90
18781;DHT22;9519;51.890;8.970;2022-09-27T04:21:47;10.60;99.90
18781;DHT22;9519;51.890;8.970;2022-09-27T04:26:49;10.70;99.90
18781;DHT22;9519;51.890;8.970;2022-09-27T04:31:52;10.60;99.90
18781;DHT22;9519;51.890;8.970;2022-09-27T04:36:56;10.60;99.90
18781;DHT22;9519;51.890;8.970;2022-09-27T04:41:58;10.50;99.90
18781;DHT22;9519;51.890;8.970;2022-09-27T04:47:00;10.40;99.90
18781;DHT22;9519;51.890;8.970;2022-09-27T04:52:04;10.40;99.90
18781;DHT22;9519;51.890;8.970;2022-09-27T04:57:07;10.30;99.90
18781;DHT22;9519;51.890;8.970;2022-09-27T05:02:09;10.30;99.90
18781;DHT22;9519;51.890;8.970;2022-09-27T05:07:12;10.30;99.90
18781;DHT22;9519;51.890;8.970;2022-09-27T05:12:15;10.20;99.90
18781;DHT22;9519;51.890;8.970;2022-09-27T05:17:17;10.10;99.90
18781;DHT22;9519;51.890;8.970;2022-09-27T05:22:22;10.10;99.90
18781;DHT22;9519;51.890;8.970;2022-09-27T05:27:25;10.10;99.90
18781;DHT22;9519;51.890;8.970;2022-09-27T05:32:27;10.10;99.90
18781;DHT22;9519;51.890;8.970;2022-09-27T05:37:31;10.10;99.90
18781;DHT22;9519;51.890;8.970;2022-09-27T05:42:33;10.10;99.90
18781;DHT22;9519;51.890;8.970;2022-09-27T05:47:38;10.00;99.90
18781;DHT22;9519;51.890;8.970;2022-09-27T05:52:42;10.00;99.90
18781;DHT22;9519;51.890;8.970;2022-09-27T05:57:53;10.00;99.90
18781;DHT22;9519;51.890;8.970;2022-09-27T06:02:58;10.00;99.90
18781;DHT22;9519;51.890;8.970;2022-09-27T06:08:05;10.00;99.90
18781;DHT22;9519;51.890;8.970;2022-09-27T06:13:11;10.00;99.90
18781;DHT22;9519;51.890;8.970;2022-09-27T06:18:15;10.00;99.90
18781;DHT22;9519;51.890;8.970;2022-09-27T06:23:20;10.00;99.90
18781;DHT22;9519;51.890;8.970;2022-09-27T06:28:24;10.00;99.90
18781;DHT22;9519;51.890;8.970;2022-09-27T06:33:26;10.00;99.90
18781;DHT22;9519;51.890;8.970;2022-09-27T06:38:30;10.00;99.90
18781;DHT22;9519;51.890;8.970;2022-09-27T06:43:33;10.00;99.90
18781;DHT22;9519;51.890;8.970;2022-09-27T06:48:35;10.00;99.90
18781;DHT22;9519;51.890;8.970;2022-09-27T06:53:40;10.00;99.90
18781;DHT22;9519;51.890;8.970;2022-09-27T06:58:42;10.10;99.90
18781;DHT22;9519;51.890;8.970;2022-09-27T07:04:01;10.10;99.90
18781;DHT22;9519;51.890;8.970;2022-09-27T07:09:06;10.20;99.90
18781;DHT22;9519;51.890;8.970;2022-09-27T07:14:09;10.10;99.90
18781;DHT22;9519;51.890;8.970;2022-09-27T07:19:11;10.20;99.90
18781;DHT22;9519;51.890;8.970;2022-09-27T07:24:16;10.10;99.90
18781;DHT22;9519;51.890;8.970;2022-09-27T07:29:18;10.10;99.90
18781;DHT22;9519;51.890;8.970;2022-09-27T07:34:20;10.10;99.90
18781;DHT22;9519;51.890;8.970;2022-09-27T07:39:23;10.10;99.90
18781;DHT22;9519;51.890;8.970;2022-09-27T07:44:26;10.10;99.90
18781;DHT22;9519;51.890;8.970;2022-09-27T07:49:28;10.00;99.90
18781;DHT22;9519;51.890;8.970;2022-09-27T07:54:33;10.00;99.90
18781;DHT22;9519;51.890;8.970;2022-09-27T07:59:35;10.00;99.90
18781;DHT22;9519;51.890;8.970;2022-09-27T08:04:37;10.10;99.90
18781;DHT22;9519;51.890;8.970;2022-09-27T08:09:44;10.10;99.90
18781;DHT22;9519;51.890;8.970;2022-09-27T08:14:46;10.10;99.90
18781;DHT22;9519;51.890;8.970;2022-09-27T08:19:49;10.20;99.90
18781;DHT22;9519;51.890;8.970;2022-09-27T08:24:52;10.20;99.90
18781;DHT22;9519;51.890;8.970;2022-09-27T08:29:55;10.30;99.90
18781;DHT22;9519;51.890;8.970;2022-09-27T08:34:57;10.20;99.90
18781;DHT22;9519;51.890;8.970;2022-09-27T08:40:01;10.30;99.90
18781;DHT22;9519;51.890;8.970;2022-09-27T08:45:10;10.30;99.90
18781;DHT22;9519;51.890;8.970;2022-09-27T08:50:23;10.30;99.90
18781;DHT22;9519;51.890;8.970;2022-09-27T08:55:34;10.30;99.90
18781;DHT22;9519;51.890;8.970;2022-09-27T09:00:39;10.30;99.90
18781;DHT22;9519;51.890;8.970;2022-09-27T09:05:48;10.40;99.90
18781;DHT22;9519;51.890;8.970;2022-09-27T09:11:06;10.40;99.90
18781;DHT22;9519;51.890;8.970;2022-09-27T09:16:41;10.50;99.90
18781;DHT22;9519;51.890;8.970;2022-09-27T09:21:56;10.50;99.90
18781;DHT22;9519;51.890;8.970;2022-09-27T09:27:16;10.60;99.90
18781;DHT22;9519;51.890;8.970;2022-09-27T09:32:33;10.80;99.90
18781;DHT22;9519;51.890;8.970;2022-09-27T09:37:48;10.80;99.90
18781;DHT22;9519;51.890;8.970;2022-09-27T09:42:58;10.90;99.90
18781;DHT22;9519;51.890;8.970;2022-09-27T09:48:09;11.00;99.90
18781;DHT22;9519;51.890;8.970;2022-09-27T09:53:20;11.00;99.90
18781;DHT22;9519;51.890;8.970;2022-09-27T09:58:38;11.00;99.90
18781;DHT22;9519;51.890;8.970;2022-09-27T10:03:45;11.00;99.90
18781;DHT22;9519;51.890;8.970;2022-09-27T10:08:47;11.10;99.90
18781;DHT22;9519;51.890;8.970;2022-09-27T10:13:55;11.10;99.90
18781;DHT22;9519;51.890;8.970;2022-09-27T10:19:01;11.10;99.90
18781;DHT22;9519;51.890;8.970;2022-09-27T10:24:07;11.20;99.90
18781;DHT22;9519;51.890;8.970;2022-09-27T10:29:30;11.20;99.90
18781;DHT22;9519;51.890;8.970;2022-09-27T10:34:36;11.30;99.90
18781;DHT22;9519;51.890;8.970;2022-09-27T10:39:41;11.50;99.90
18781;DHT22;9519;51.890;8.970;2022-09-27T10:44:45;11.60;99.90
18781;DHT22;9519;51.890;8.970;2022-09-27T10:49:48;11.70;99.90
18781;DHT22;9519;51.890;8.970;2022-09-27T10:54:53;11.70;99.90
18781;DHT22;9519;51.890;8.970;2022-09-27T11:00:01;11.70;99.90
18781;DHT22;9519;51.890;8.970;2022-09-27T11:05:10;11.60;99.90
18781;DHT22;9519;51.890;8.970;2022-09-27T11:10:22;11.50;99.90
18781;DHT22;9519;51.890;8.970;2022-09-27T11:15:30;11.30;99.90
18781;DHT22;9519;51.890;8.970;2022-09-27T11:20:38;11.30;99.90
18781;DHT22;9519;51.890;8.970;2022-09-27T11:26:09;11.40;99.90
18781;DHT22;9519;51.890;8.970;2022-09-27T11:31:39;11.60;99.90
18781;DHT22;9519;51.890;8.970;2022-09-27T11:36:54;11.50;99.90
18781;DHT22;9519;51.890;8.970;2022-09-27T11:42:27;11.20;99.90
18781;DHT22;9519;51.890;8.970;2022-09-27T11:48:07;10.90;99.90
18781;DHT22;9519;51.890;8.970;2022-09-27T11:53:31;10.70;99.90
18781;DHT22;9519;51.890;8.970;2022-09-27T11:58:53;10.70;99.90
18781;DHT22;9519;51.890;8.970;2022-09-27T12:10:01;10.80;99.90
18781;DHT22;9519;51.890;8.970;2022-09-27T12:15:14;10.90;99.90
18781;DHT22;9519;51.890;8.970;2022-09-27T12:20:22;11.00;99.90
18781;DHT22;9519;51.890;8.970;2022-09-27T12:25:34;11.00;99.90
18781;DHT22;9519;51.890;8.970;2022-09-27T12:30:43;11.00;99.90
18781;DHT22;9519;51.890;8.970;2022-09-27T12:35:53;11.00;99.90
18781;DHT22;9519;51.890;8.970;2022-09-27T12:41:03;11.00;99.90
18781;DHT22;9519;51.890;8.970;2022-09-27T12:46:14;11.20;99.90
18781;DHT22;9519;51.890;8.970;2022-09-27T12:51:34;11.20;99.90
18781;DHT22;9519;51.890;8.970;2022-09-27T12:56:46;11.30;99.90
18781;DHT22;9519;51.890;8.970;2022-09-27T13:08:00;11.30;99.90
18781;DHT22;9519;51.890;8.970;2022-09-27T13:13:18;11.20;99.90
18781;DHT22;9519;51.890;8.970;2022-09-27T13:18:31;11.20;99.90
18781;DHT22;9519;51.890;8.970;2022-09-27T13:23:54;11.20;99.90
18781;DHT22;9519;51.890;8.970;2022-09-27T13:28:58;11.10;99.90
18781;DHT22;9519;51.890;8.970;2022-09-27T13:34:03;11.10;99.90
18781;DHT22;9519;51.890;8.970;2022-09-27T13:39:18;11.10;99.90
18781;DHT22;9519;51.890;8.970;2022-09-27T13:44:27;11.20;99.90
18781;DHT22;9519;51.890;8.970;2022-09-27T13:49:35;11.30;99.90
18781;DHT22;9519;51.890;8.970;2022-09-27T13:54:50;11.40;99.90
18781;DHT22;9519;51.890;8.970;2022-09-27T13:59:56;11.40;99.90
18781;DHT22;9519;51.890;8.970;2022-09-27T14:05:08;11.40;99.90
18781;DHT22;9519;51.890;8.970;2022-09-27T14:10:16;11.40;99.90
18781;DHT22;9519;51.890;8.970;2022-09-27T14:15:23;11.50;99.90
18781;DHT22;9519;51.890;8.970;2022-09-27T14:20:29;11.50;99.90
18781;DHT22;9519;51.890;8.970;2022-09-27T14:25:37;11.50;99.90
18781;DHT22;9519;51.890;8.970;2022-09-27T14:30:40;11.50;99.90
18781;DHT22;9519;51.890;8.970;2022-09-27T14:35:47;11.50;99.90
18781;DHT22;9519;51.890;8.970;2022-09-27T14:41:09;11.40;99.90
18781;DHT22;9519;51.890;8.970;2022-09-27T14:46:25;11.40;99.90
18781;DHT22;9519;51.890;8.970;2022-09-27T14:51:29;11.70;99.90
18781;DHT22;9519;51.890;8.970;2022-09-27T14:56:36;12.00;99.90
18781;DHT22;9519;51.890;8.970;2022-09-27T15:01:47;12.20;99.90
18781;DHT22;9519;51.890;8.970;2022-09-27T15:06:51;12.20;99.90
18781;DHT22;9519;51.890;8.970;2022-09-27T15:11:57;12.10;99.90
18781;DHT22;9519;51.890;8.970;2022-09-27T15:17:00;12.10;99.90
18781;DHT22;9519;51.890;8.970;2022-09-27T15:22:21;12.00;99.90
18781;DHT22;9519;51.890;8.970;2022-09-27T15:27:31;11.80;99.90
18781;DHT22;9519;51.890;8.970;2022-09-27T15:32:33;11.70;99.90
18781;DHT22;9519;51.890;8.970;2022-09-27T15:37:36;11.60;99.90
18781;DHT22;9519;51.890;8.970;2022-09-27T15:42:55;11.70;99.90
18781;DHT22;9519;51.890;8.970;2022-09-27T15:48:06;11.70;99.90
18781;DHT22;9519;51.890;8.970;2022-09-27T15:53:39;11.60;99.90
18781;DHT22;9519;51.890;8.970;2022-09-27T15:58:44;11.50;99.90
18781;DHT22;9519;51.890;8.970;2022-09-27T16:03:47;11.40;99.90
18781;DHT22;9519;51.890;8.970;2022-09-27T16:08:50;11.30;99.90
18781;DHT22;9519;51.890;8.970;2022-09-27T16:13:53;11.20;99.90
18781;DHT22;9519;51.890;8.970;2022-09-27T16:18:55;11.10;99.90
18781;DHT22;9519;51.890;8.970;2022-09-27T16:23:57;11.00;99.90
18781;DHT22;9519;51.890;8.970;2022-09-27T16:29:01;10.90;99.90
18781;DHT22;9519;51.890;8.970;2022-09-27T16:34:03;10.90;99.90
18781;DHT22;9519;51.890;8.970;2022-09-27T16:39:06;10.80;99.90
18781;DHT22;9519;51.890;8.970;2022-09-27T16:44:13;10.80;99.90
18781;DHT22;9519;51.890;8.970;2022-09-27T16:49:16;10.70;99.90
18781;DHT22;9519;51.890;8.970;2022-09-27T16:54:36;10.70;99.90
18781;DHT22;9519;51.890;8.970;2022-09-27T16:59:39;10.70;99.90
18781;DHT22;9519;51.890;8.970;2022-09-27T17:04:41;10.70;99.90
18781;DHT22;9519;51.890;8.970;2022-09-27T17:09:43;10.70;99.90
18781;DHT22;9519;51.890;8.970;2022-09-27T17:14:47;10.70;99.90
18781;DHT22;9519;51.890;8.970;2022-09-27T17:19:49;10.60;99.90
18781;DHT22;9519;51.890;8.970;2022-09-27T17:24:51;10.60;99.90
18781;DHT22;9519;51.890;8.970;2022-09-27T17:29:54;10.60;99.90
18781;DHT22;9519;51.890;8.970;2022-09-27T17:34:56;10.50;99.90
18781;DHT22;9519;51.890;8.970;2022-09-27T17:39:58;10.50;99.90
18781;DHT22;9519;51.890;8.970;2022-09-27T17:45:02;10.50;99.90
18781;DHT22;9519;51.890;8.970;2022-09-27T17:50:05;10.40;99.90
18781;DHT22;9519;51.890;8.970;2022-09-27T17:55:26;10.40;99.90
18781;DHT22;9519;51.890;8.970;2022-09-27T18:00:30;10.40;99.90
18781;DHT22;9519;51.890;8.970;2022-09-27T18:05:33;10.40;99.90
18781;DHT22;9519;51.890;8.970;2022-09-27T18:10:36;10.40;99.90
18781;DHT22;9519;51.890;8.970;2022-09-27T18:15:41;10.40;99.90
18781;DHT22;9519;51.890;8.970;2022-09-27T18:20:43;10.40;99.90
18781;DHT22;9519;51.890;8.970;2022-09-27T18:25:52;10.40;99.90
18781;DHT22;9519;51.890;8.970;2022-09-27T18:31:00;10.40;99.90
18781;DHT22;9519;51.890;8.970;2022-09-27T18:36:06;10.30;99.90
18781;DHT22;9519;51.890;8.970;2022-09-27T18:41:12;10.40;99.90
18781;DHT22;9519;51.890;8.970;2022-09-27T18:46:18;10.40;99.90
18781;DHT22;9519;51.890;8.970;2022-09-27T18:51:22;10.30;99.90
18781;DHT22;9519;51.890;8.970;2022-09-27T18:56:27;10.30;99.90
18781;DHT22;9519;51.890;8.970;2022-09-27T19:01:31;10.30;99.90
18781;DHT22;9519;51.890;8.970;2022-09-27T19:06:35;10.20;99.90
18781;DHT22;9519;51.890;8.970;2022-09-27T19:11:38;10.20;99.90
18781;DHT22;9519;51.890;8.970;2022-09-27T19:16:42;10.20;99.90
18781;DHT22;9519;51.890;8.970;2022-09-27T19:21:46;10.10;99.90
18781;DHT22;9519;51.890;8.970;2022-09-27T19:26:49;10.10;99.90
18781;DHT22;9519;51.890;8.970;2022-09-27T19:31:54;10.10;99.90
18781;DHT22;9519;51.890;8.970;2022-09-27T19:36:59;10.10;99.90
18781;DHT22;9519;51.890;8.970;2022-09-27T19:42:01;10.00;99.90
18781;DHT22;9519;51.890;8.970;2022-09-27T19:47:04;10.00;99.90
18781;DHT22;9519;51.890;8.970;2022-09-27T19:52:06;10.00;99.90
18781;DHT22;9519;51.890;8.970;2022-09-27T19:57:08;9.90;99.90
18781;DHT22;9519;51.890;8.970;2022-09-27T20:02:12;9.90;99.90
18781;DHT22;9519;51.890;8.970;2022-09-27T20:07:14;9.90;99.90
18781;DHT22;9519;51.890;8.970;2022-09-27T20:12:16;9.90;99.90
18781;DHT22;9519;51.890;8.970;2022-09-27T20:17:19;9.90;99.90
18781;DHT22;9519;51.890;8.970;2022-09-27T20:22:21;9.80;99.90
18781;DHT22;9519;51.890;8.970;2022-09-27T20:27:23;9.90;99.90
18781;DHT22;9519;51.890;8.970;2022-09-27T20:32:27;9.90;99.90
18781;DHT22;9519;51.890;8.970;2022-09-27T20:37:29;9.90;99.90
18781;DHT22;9519;51.890;8.970;2022-09-27T20:42:31;9.90;99.90
18781;DHT22;9519;51.890;8.970;2022-09-27T20:47:34;10.00;99.90
18781;DHT22;9519;51.890;8.970;2022-09-27T20:52:38;10.00;99.90
18781;DHT22;9519;51.890;8.970;2022-09-27T20:57:40;10.00;99.90
18781;DHT22;9519;51.890;8.970;2022-09-27T21:02:44;9.90;99.90
18781;DHT22;9519;51.890;8.970;2022-09-27T21:07:46;9.90;99.90
18781;DHT22;9519;51.890;8.970;2022-09-27T21:12:52;9.90;99.90
18781;DHT22;9519;51.890;8.970;2022-09-27T21:17:56;9.80;99.90
18781;DHT22;9519;51.890;8.970;2022-09-27T21:22:58;9.80;99.90
18781;DHT22;9519;51.890;8.970;2022-09-27T21:28:00;9.80;99.90
18781;DHT22;9519;51.890;8.970;2022-09-27T21:33:04;9.70;99.90
18781;DHT22;9519;51.890;8.970;2022-09-27T21:38:06;9.70;99.90
18781;DHT22;9519;51.890;8.970;2022-09-27T21:43:09;9.70;99.90
18781;DHT22;9519;51.890;8.970;2022-09-27T21:48:12;9.60;99.90
18781;DHT22;9519;51.890;8.970;2022-09-27T21:53:14;9.60;99.90
18781;DHT22;9519;51.890;8.970;2022-09-27T21:58:16;9.50;99.90
18781;DHT22;9519;51.890;8.970;2022-09-27T22:03:20;9.50;99.90
18781;DHT22;9519;51.890;8.970;2022-09-27T22:08:22;9.50;99.90
18781;DHT22;9519;51.890;8.970;2022-09-27T22:13:24;9.50;99.90
18781;DHT22;9519;51.890;8.970;2022-09-27T22:18:28;9.50;99.90
18781;DHT22;9519;51.890;8.970;2022-09-27T22:23:30;9.50;99.90
18781;DHT22;9519;51.890;8.970;2022-09-27T22:28:32;9.60;99.90
18781;DHT22;9519;51.890;8.970;2022-09-27T22:33:36;9.50;99.90
18781;DHT22;9519;51.890;8.970;2022-09-27T22:38:38;9.50;99.90
18781;DHT22;9519;51.890;8.970;2022-09-27T22:43:40;9.50;99.90
18781;DHT22;9519;51.890;8.970;2022-09-27T22:48:44;9.50;99.90
18781;DHT22;9519;51.890;8.970;2022-09-27T22:53:46;9.50;99.90
18781;DHT22;9519;51.890;8.970;2022-09-27T22:58:48;9.50;99.90
18781;DHT22;9519;51.890;8.970;2022-09-27T23:03:52;9.50;99.90
18781;DHT22;9519;51.890;8.970;2022-09-27T23:08:55;9.50;99.90
18781;DHT22;9519;51.890;8.970;2022-09-27T23:13:58;9.50;99.90
18781;DHT22;9519;51.890;8.970;2022-09-27T23:19:02;9.50;99.90
18781;DHT22;9519;51.890;8.970;2022-09-27T23:24:09;9.50;99.90
18781;DHT22;9519;51.890;8.970;2022-09-27T23:29:13;9.50;99.90
18781;DHT22;9519;51.890;8.970;2022-09-27T23:34:16;9.50;99.90
18781;DHT22;9519;51.890;8.970;2022-09-27T23:39:18;9.50;99.90
18781;DHT22;9519;51.890;8.970;2022-09-27T23:44:20;9.50;99.90
18781;DHT22;9519;51.890;8.970;2022-09-27T23:49:25;9.50;99.90
18781;DHT22;9519;51.890;8.970;2022-09-27T23:54:27;9.50;99.90
18781;DHT22;9519;51.890;8.970;2022-09-27T23:59:30;9.50;99.90
